Time;durP1;ratioP1;P1;durP2;ratioP2;P2;SDS_P1;SDS_P2;PMS_P1;PMS_P2;Temp;Humidity;BMP_temperature;BMP_pressure;BME280_temperature;BME280_humidity;BME280_pressure;Samples;Min_cycle;Max_cycle;Signal;HPM_P1;HPM_P2
2023/12/15 00:00:35;;;;;;;25.50;15.50;;;5.70;99.90;;;;;;5017791;28;20192;-76
2023/12/15 00:03:03;;;;;;;25.77;16.03;;;5.70;99.90;;;;;;5022904;28;20182;-74
2023/12/15 00:05:30;;;;;;;26.70;16.53;;;5.60;99.90;;;;;;5024055;28;20195;-76
2023/12/15 00:07:57;;;;;;;25.10;15.53;;;5.60;99.90;;;;;;5027467;28;20577;-74
2023/12/15 00:10:25;;;;;;;27.47;16.30;;;5.50;99.90;;;;;;5034487;28;20169;-74
2023/12/15 00:12:53;;;;;;;29.60;15.37;;;5.60;99.90;;;;;;5033447;28;20228;-75
2023/12/15 00:15:22;;;;;;;28.27;16.57;;;5.60;99.90;;;;;;5022683;28;20629;-74
2023/12/15 00:17:49;;;;;;;27.33;16.77;;;5.50;99.90;;;;;;5030516;28;20207;-74
2023/12/15 00:20:16;;;;;;;24.93;16.70;;;5.50;99.90;;;;;;5027428;28;20678;-75
2023/12/15 00:22:44;;;;;;;27.67;16.67;;;5.50;99.90;;;;;;5044803;28;20226;-74
2023/12/15 00:25:11;;;;;;;27.80;16.93;;;5.50;99.90;;;;;;5026677;28;20214;-75
2023/12/15 00:27:39;;;;;;;24.27;15.93;;;5.60;99.90;;;;;;5013600;28;20200;-75
2023/12/15 00:30:09;;;;;;;28.27;16.90;;;5.50;99.90;;;;;;5015552;28;20196;-74
2023/12/15 00:32:36;;;;;;;27.53;16.13;;;5.60;99.90;;;;;;5033238;28;20577;-74
2023/12/15 00:35:04;;;;;;;28.73;17.20;;;5.60;99.90;;;;;;5034351;28;20550;-74
2023/12/15 00:37:31;;;;;;;26.43;16.27;;;5.60;99.90;;;;;;5029558;28;20231;-74
2023/12/15 00:39:58;;;;;;;26.53;16.10;;;5.70;99.90;;;;;;5032596;28;20195;-74
2023/12/15 00:42:26;;;;;;;26.27;16.67;;;5.60;99.90;;;;;;5032270;28;20219;-75
2023/12/15 00:44:54;;;;;;;24.87;16.80;;;5.60;99.90;;;;;;5026871;28;20191;-74
2023/12/15 00:47:23;;;;;;;25.83;16.43;;;5.60;99.90;;;;;;5030222;28;20196;-75
2023/12/15 00:49:50;;;;;;;27.60;16.57;;;5.80;99.90;;;;;;5024020;28;20263;-74
2023/12/15 00:52:17;;;;;;;25.13;16.20;;;5.70;99.90;;;;;;5025667;28;20220;-75
2023/12/15 00:54:45;;;;;;;25.20;15.57;;;5.80;99.90;;;;;;5037340;28;20201;-74
2023/12/15 00:57:12;;;;;;;26.53;16.57;;;5.80;99.90;;;;;;5027260;28;20210;-74
2023/12/15 00:59:39;;;;;;;25.77;16.80;;;5.70;99.90;;;;;;5032565;28;20212;-74
2023/12/15 01:02:08;;;;;;;26.60;16.60;;;5.80;99.90;;;;;;5040400;28;20225;-74
2023/12/15 01:04:36;;;;;;;27.13;15.90;;;5.80;99.90;;;;;;5026966;28;20197;-74
2023/12/15 01:07:04;;;;;;;24.37;15.93;;;5.80;99.90;;;;;;5031904;28;20200;-74
2023/12/15 01:09:31;;;;;;;27.07;15.77;;;5.90;99.90;;;;;;5032428;28;20198;-74
2023/12/15 01:11:59;;;;;;;24.67;15.70;;;5.90;99.90;;;;;;5044571;28;20229;-75
2023/12/15 01:14:26;;;;;;;25.97;15.60;;;5.90;99.90;;;;;;5033506;28;20572;-74
2023/12/15 01:16:54;;;;;;;26.03;15.07;;;5.90;99.90;;;;;;5041133;28;20215;-76
2023/12/15 01:19:21;;;;;;;26.17;14.97;;;5.90;99.90;;;;;;5033903;28;20677;-74
2023/12/15 01:21:50;;;;;;;24.10;14.87;;;5.90;99.90;;;;;;5032264;28;20223;-74
2023/12/15 01:24:17;;;;;;;21.13;13.93;;;5.90;99.90;;;;;;5025730;28;20195;-74
2023/12/15 01:26:44;;;;;;;23.97;15.73;;;5.80;99.90;;;;;;5030943;28;20201;-74
2023/12/15 01:29:12;;;;;;;22.67;14.93;;;5.80;99.90;;;;;;5016792;28;20193;-75
2023/12/15 01:31:39;;;;;;;23.50;15.20;;;5.90;99.90;;;;;;5022853;28;20220;-74
2023/12/15 01:34:06;;;;;;;26.13;14.17;;;5.90;99.90;;;;;;5031974;28;20198;-74
2023/12/15 01:36:34;;;;;;;22.07;15.73;;;5.90;99.90;;;;;;5032144;28;20205;-76
2023/12/15 01:39:03;;;;;;;24.27;15.60;;;6.00;99.90;;;;;;5019452;28;20579;-74
2023/12/15 01:41:31;;;;;;;25.60;15.73;;;6.00;99.90;;;;;;5015341;28;20215;-74
2023/12/15 01:43:59;;;;;;;24.67;15.77;;;6.00;99.90;;;;;;5026194;28;20197;-75
2023/12/15 01:46:26;;;;;;;22.60;15.53;;;6.00;99.90;;;;;;5028567;28;20232;-77
2023/12/15 01:48:54;;;;;;;24.10;15.90;;;6.00;99.90;;;;;;5037509;28;20235;-74
2023/12/15 01:51:21;;;;;;;25.73;14.67;;;6.00;99.90;;;;;;5025136;28;20728;-74
2023/12/15 01:53:48;;;;;;;26.73;16.73;;;5.90;99.90;;;;;;5022240;28;20227;-74
2023/12/15 01:56:17;;;;;;;25.87;16.27;;;6.00;99.90;;;;;;5030346;28;20217;-74
2023/12/15 01:58:44;;;;;;;24.63;15.23;;;6.00;99.90;;;;;;5046035;28;20706;-75
2023/12/15 02:01:12;;;;;;;26.83;16.67;;;6.00;99.90;;;;;;5018148;28;20217;-74
2023/12/15 02:03:39;;;;;;;23.93;15.60;;;6.00;99.90;;;;;;5031136;28;20206;-74
2023/12/15 02:06:07;;;;;;;22.43;15.43;;;6.10;99.90;;;;;;5044290;28;20197;-75
2023/12/15 02:08:34;;;;;;;25.10;15.13;;;6.10;99.90;;;;;;5037294;28;20193;-76
2023/12/15 02:11:02;;;;;;;24.67;15.80;;;6.10;99.90;;;;;;5029052;28;20247;-74
2023/12/15 02:13:31;;;;;;;25.53;16.37;;;6.20;99.90;;;;;;5024133;28;20214;-74
2023/12/15 02:16:44;;;;;;;23.20;15.77;;;6.10;99.90;;;;;;5020249;28;20209;-75
2023/12/15 02:19:12;;;;;;;24.07;16.60;;;6.20;99.90;;;;;;5020638;28;20702;-74
2023/12/15 02:21:39;;;;;;;24.20;15.50;;;6.10;99.90;;;;;;5011091;28;20236;-75
2023/12/15 02:24:08;;;;;;;23.77;16.00;;;6.10;99.90;;;;;;5023756;28;20673;-74
2023/12/15 02:26:35;;;;;;;23.27;15.97;;;6.20;99.90;;;;;;5020746;28;20571;-75
2023/12/15 02:29:02;;;;;;;23.23;15.33;;;6.20;99.90;;;;;;5027161;28;20182;-74
2023/12/15 02:31:30;;;;;;;23.83;14.50;;;6.20;99.90;;;;;;5022893;28;20224;-74
2023/12/15 02:33:57;;;;;;;24.33;15.43;;;6.20;99.90;;;;;;5015505;28;20194;-75
2023/12/15 02:36:25;;;;;;;27.13;16.10;;;6.20;99.90;;;;;;5045211;28;20200;-74
2023/12/15 02:38:52;;;;;;;24.90;15.97;;;6.30;99.90;;;;;;5047880;28;20225;-74
2023/12/15 02:41:21;;;;;;;24.90;15.93;;;6.20;99.90;;;;;;5033231;28;20218;-74
2023/12/15 02:43:49;;;;;;;25.37;15.40;;;6.30;99.90;;;;;;5038979;28;20201;-75
2023/12/15 02:46:16;;;;;;;24.83;16.40;;;6.30;99.90;;;;;;5030809;28;20202;-74
2023/12/15 02:48:43;;;;;;;23.17;15.60;;;6.30;99.90;;;;;;5025333;28;20194;-75
2023/12/15 02:51:11;;;;;;;26.17;15.90;;;6.20;99.90;;;;;;5016856;28;20233;-74
2023/12/15 02:53:40;;;;;;;23.70;16.03;;;6.20;99.90;;;;;;5026757;28;20213;-74
2023/12/15 02:56:08;;;;;;;22.13;15.97;;;6.20;99.90;;;;;;5016939;28;20278;-74
2023/12/15 02:58:37;;;;;;;24.10;15.63;;;6.20;99.90;;;;;;5023140;28;20223;-76
2023/12/15 03:01:05;;;;;;;27.43;16.40;;;6.30;99.90;;;;;;5018426;28;20215;-74
2023/12/15 03:03:32;;;;;;;23.87;15.90;;;6.20;99.90;;;;;;5026689;28;20191;-74
2023/12/15 03:05:59;;;;;;;25.33;16.90;;;6.20;99.90;;;;;;5011014;28;20198;-74
2023/12/15 03:08:27;;;;;;;23.80;16.30;;;6.20;99.90;;;;;;5020041;28;20214;-74
2023/12/15 03:10:57;;;;;;;24.57;15.57;;;6.30;99.90;;;;;;5019419;28;20195;-77
2023/12/15 03:13:25;;;;;;;27.93;18.80;;;6.30;99.90;;;;;;5026670;28;20197;-75
2023/12/15 03:15:54;;;;;;;25.23;16.90;;;6.30;99.90;;;;;;5041272;28;20201;-77
2023/12/15 03:18:21;;;;;;;27.43;17.97;;;6.30;99.90;;;;;;5019227;28;20208;-74
2023/12/15 03:20:49;;;;;;;29.03;18.60;;;6.30;99.90;;;;;;5019370;28;20212;-75
2023/12/15 03:23:16;;;;;;;34.07;18.00;;;6.30;99.90;;;;;;5022342;28;20200;-75
2023/12/15 03:25:43;;;;;;;26.70;17.07;;;6.40;99.90;;;;;;5019288;28;20205;-77
2023/12/15 03:28:11;;;;;;;27.53;18.67;;;6.40;99.90;;;;;;5024892;28;20201;-74
2023/12/15 03:30:38;;;;;;;27.50;18.77;;;6.50;99.90;;;;;;5014487;28;20290;-75
2023/12/15 03:33:07;;;;;;;28.10;19.27;;;6.40;99.90;;;;;;5025768;28;20572;-78
2023/12/15 03:35:34;;;;;;;29.63;18.40;;;6.40;99.90;;;;;;5023982;28;20670;-76
2023/12/15 03:38:04;;;;;;;26.53;17.37;;;6.40;99.90;;;;;;5023764;28;20194;-73
2023/12/15 03:40:31;;;;;;;26.70;18.50;;;6.50;99.90;;;;;;5028817;28;20275;-74
2023/12/15 03:42:59;;;;;;;34.20;19.43;;;6.40;99.90;;;;;;5025767;28;20213;-73
2023/12/15 03:45:26;;;;;;;26.47;18.63;;;6.50;99.90;;;;;;5025930;28;20206;-74
2023/12/15 03:47:54;;;;;;;28.07;18.00;;;6.50;99.90;;;;;;5025984;28;20206;-74
2023/12/15 03:50:23;;;;;;;27.77;17.70;;;6.50;99.90;;;;;;5020056;28;20203;-74
2023/12/15 03:52:51;;;;;;;30.07;18.20;;;6.40;99.90;;;;;;5023733;28;20223;-74
2023/12/15 03:55:18;;;;;;;30.67;19.13;;;6.40;99.90;;;;;;5034099;28;20201;-74
2023/12/15 03:57:45;;;;;;;29.13;18.87;;;6.50;99.90;;;;;;5027603;28;20207;-75
2023/12/15 04:00:13;;;;;;;29.67;18.90;;;6.50;99.90;;;;;;5032592;28;20236;-74
2023/12/15 04:02:41;;;;;;;29.60;18.37;;;6.40;99.90;;;;;;5035392;28;20691;-74
2023/12/15 04:05:09;;;;;;;30.03;18.80;;;6.50;99.90;;;;;;5033454;28;20199;-74
2023/12/15 04:07:37;;;;;;;26.97;17.30;;;6.40;99.90;;;;;;5019111;28;20198;-74
2023/12/15 04:10:06;;;;;;;28.80;19.57;;;6.50;99.90;;;;;;5029629;28;20194;-73
2023/12/15 04:12:33;;;;;;;28.47;19.47;;;6.50;99.90;;;;;;5024954;28;20225;-73
2023/12/15 04:15:01;;;;;;;33.03;20.70;;;6.50;99.90;;;;;;5035667;28;20584;-74
2023/12/15 04:17:28;;;;;;;33.07;20.80;;;6.50;99.90;;;;;;5032023;28;20210;-74
2023/12/15 04:19:56;;;;;;;32.90;19.80;;;6.50;99.90;;;;;;5022261;28;20218;-73
2023/12/15 04:22:23;;;;;;;30.30;17.97;;;6.50;99.90;;;;;;5026230;28;20227;-73
2023/12/15 04:24:52;;;;;;;28.57;19.07;;;6.50;99.90;;;;;;5035594;28;20203;-75
2023/12/15 04:27:19;;;;;;;31.83;19.60;;;6.50;99.90;;;;;;5047095;28;20206;-74
2023/12/15 04:29:47;;;;;;;33.23;19.40;;;6.50;99.90;;;;;;5043552;28;20186;-74
2023/12/15 04:32:14;;;;;;;33.40;19.33;;;6.50;99.90;;;;;;5024395;28;20231;-74
2023/12/15 04:34:41;;;;;;;33.37;19.60;;;6.50;99.90;;;;;;5031755;28;20208;-73
2023/12/15 04:37:09;;;;;;;30.90;19.97;;;6.50;99.90;;;;;;5032528;28;20212;-74
2023/12/15 04:39:36;;;;;;;34.00;20.53;;;6.50;99.90;;;;;;5026208;28;20215;-74
2023/12/15 04:42:06;;;;;;;31.60;19.60;;;6.50;99.90;;;;;;5020585;28;20229;-74
2023/12/15 04:44:35;;;;;;;28.97;18.27;;;6.50;99.90;;;;;;5033654;28;20221;-74
2023/12/15 04:47:02;;;;;;;32.10;19.30;;;6.50;99.90;;;;;;5031271;28;20209;-74
2023/12/15 04:49:29;;;;;;;29.27;19.63;;;6.60;99.90;;;;;;5026646;28;20215;-74
2023/12/15 04:51:59;;;;;;;30.03;19.63;;;6.60;99.90;;;;;;5022307;28;20221;-74
2023/12/15 04:54:27;;;;;;;36.37;21.10;;;6.60;99.90;;;;;;5033360;28;20198;-74
2023/12/15 04:56:54;;;;;;;30.93;19.13;;;6.60;99.90;;;;;;5033299;28;20646;-74
2023/12/15 04:59:23;;;;;;;35.27;19.37;;;6.60;99.90;;;;;;5040408;28;20272;-74
2023/12/15 05:01:50;;;;;;;33.10;19.27;;;6.60;99.90;;;;;;5018427;28;20225;-74
2023/12/15 05:04:17;;;;;;;33.27;19.90;;;6.60;99.90;;;;;;5033504;28;20187;-74
2023/12/15 05:06:45;;;;;;;29.47;17.83;;;6.60;99.90;;;;;;5031734;28;20695;-74
2023/12/15 05:09:12;;;;;;;31.40;20.03;;;6.60;99.90;;;;;;5044883;28;20198;-74
2023/12/15 05:11:40;;;;;;;31.13;18.70;;;6.70;99.90;;;;;;5016578;28;20228;-74
2023/12/15 05:14:07;;;;;;;30.70;19.17;;;6.70;99.90;;;;;;5044078;28;20198;-74
2023/12/15 05:16:36;;;;;;;35.97;20.80;;;6.70;99.90;;;;;;5025883;28;20211;-74
2023/12/15 05:19:04;;;;;;;34.83;20.73;;;6.70;99.90;;;;;;5014202;28;20205;-74
2023/12/15 05:21:31;;;;;;;32.33;19.63;;;6.70;99.90;;;;;;5023581;28;20699;-74
2023/12/15 05:23:59;;;;;;;38.93;20.87;;;6.60;99.90;;;;;;5024672;28;20201;-74
2023/12/15 05:26:26;;;;;;;35.10;20.63;;;6.60;99.90;;;;;;5016686;28;20194;-74
2023/12/15 05:28:54;;;;;;;36.53;22.23;;;6.60;99.90;;;;;;5016975;28;20187;-74
2023/12/15 05:31:21;;;;;;;37.87;21.80;;;6.60;99.90;;;;;;5032355;28;20224;-74
2023/12/15 05:33:50;;;;;;;40.13;23.37;;;6.60;99.90;;;;;;5024112;28;20206;-74
2023/12/15 05:36:19;;;;;;;38.27;22.60;;;6.70;99.90;;;;;;5032870;28;20201;-74
2023/12/15 05:38:46;;;;;;;39.43;22.37;;;6.70;99.90;;;;;;5032099;28;20210;-74
2023/12/15 05:41:13;;;;;;;37.70;22.07;;;6.70;99.90;;;;;;5027752;28;20231;-74
2023/12/15 05:43:41;;;;;;;33.10;20.00;;;6.70;99.90;;;;;;5041573;28;20208;-74
2023/12/15 05:46:09;;;;;;;35.67;22.03;;;6.70;99.90;;;;;;5029367;28;20215;-74
2023/12/15 05:48:36;;;;;;;41.47;24.23;;;6.70;99.90;;;;;;5029960;28;20201;-74
2023/12/15 05:51:08;;;;;;;39.97;21.30;;;6.70;99.90;;;;;;5022761;28;20232;-74
2023/12/15 05:53:35;;;;;;;44.73;22.47;;;6.80;99.90;;;;;;5030198;28;20681;-74
2023/12/15 05:56:03;;;;;;;44.50;23.57;;;6.70;99.90;;;;;;5030822;28;20226;-74
2023/12/15 05:58:30;;;;;;;46.17;23.37;;;6.70;99.90;;;;;;5028899;28;20214;-74
2023/12/15 06:00:57;;;;;;;48.57;24.43;;;6.70;99.90;;;;;;5028293;28;20232;-74
2023/12/15 06:03:25;;;;;;;47.13;25.10;;;6.70;99.90;;;;;;5046866;28;20219;-74
2023/12/15 06:05:52;;;;;;;43.87;25.00;;;6.70;99.90;;;;;;5028232;28;20695;-74
2023/12/15 06:08:21;;;;;;;49.33;24.70;;;6.70;99.90;;;;;;5029362;28;20195;-75
2023/12/15 06:10:49;;;;;;;46.53;23.20;;;6.80;99.90;;;;;;5022320;28;20668;-74
2023/12/15 06:13:16;;;;;;;43.20;22.33;;;6.80;99.90;;;;;;5023572;28;20203;-74
2023/12/15 06:15:44;;;;;;;40.60;23.17;;;6.80;99.90;;;;;;5038337;28;20203;-74
2023/12/15 06:18:11;;;;;;;46.60;23.93;;;6.80;99.90;;;;;;5032891;28;20207;-74
2023/12/15 06:20:40;;;;;;;43.43;23.20;;;6.80;99.90;;;;;;5031083;28;20250;-74
2023/12/15 06:23:07;;;;;;;40.60;22.33;;;6.80;99.90;;;;;;5022540;28;20690;-74
2023/12/15 06:25:36;;;;;;;44.53;23.07;;;6.80;99.90;;;;;;5032838;28;20203;-75
2023/12/15 06:28:03;;;;;;;44.43;22.77;;;6.80;99.90;;;;;;5031805;28;20563;-74
2023/12/15 06:30:32;;;;;;;41.93;23.97;;;6.90;99.90;;;;;;5028800;28;20205;-74
2023/12/15 06:32:59;;;;;;;48.33;25.53;;;6.90;99.90;;;;;;5025547;28;20225;-74
2023/12/15 06:35:26;;;;;;;46.03;24.43;;;6.90;99.90;;;;;;5022103;28;20207;-74
2023/12/15 06:37:54;;;;;;;46.47;24.93;;;6.90;99.90;;;;;;5020343;28;20203;-74
2023/12/15 06:40:21;;;;;;;50.20;26.07;;;6.90;99.90;;;;;;5023797;28;20207;-74
2023/12/15 06:42:50;;;;;;;52.93;26.70;;;7.00;99.90;;;;;;5025520;28;20230;-74
2023/12/15 06:45:17;;;;;;;53.13;27.57;;;7.00;99.90;;;;;;5027080;28;20210;-74
2023/12/15 06:47:45;;;;;;;49.33;25.57;;;7.00;99.90;;;;;;5028179;28;20206;-74
2023/12/15 06:50:16;;;;;;;49.33;25.93;;;7.00;99.90;;;;;;5024999;28;20210;-74
2023/12/15 06:52:44;;;;;;;46.87;24.97;;;7.00;99.90;;;;;;5027172;28;20221;-74
2023/12/15 06:55:12;;;;;;;50.30;25.70;;;7.00;99.90;;;;;;5020093;28;20217;-74
2023/12/15 06:57:39;;;;;;;51.43;26.23;;;7.10;99.90;;;;;;5019001;28;20206;-74
2023/12/15 07:00:09;;;;;;;53.63;26.87;;;7.10;99.90;;;;;;5024918;28;20206;-76
2023/12/15 07:02:37;;;;;;;49.20;25.70;;;7.00;99.90;;;;;;5025746;28;20222;-73
2023/12/15 07:05:05;;;;;;;47.83;26.53;;;7.00;99.90;;;;;;5026261;28;20207;-73
2023/12/15 07:07:33;;;;;;;51.93;25.47;;;7.00;99.90;;;;;;5024197;28;20206;-74
2023/12/15 07:10:00;;;;;;;54.07;25.67;;;7.00;99.90;;;;;;5025654;28;20202;-73
2023/12/15 07:12:28;;;;;;;49.20;25.63;;;7.00;99.90;;;;;;5034181;28;20210;-74
2023/12/15 07:15:00;;;;;;;52.53;25.33;;;7.00;99.90;;;;;;5050082;28;20213;-74
2023/12/15 07:17:33;;;;;;;51.53;26.67;;;7.00;99.90;;;;;;5024347;28;20197;-73
2023/12/15 07:20:00;;;;;;;54.73;26.47;;;7.00;99.90;;;;;;5026485;28;20232;-76
2023/12/15 07:22:28;;;;;;;54.97;27.47;;;7.00;99.90;;;;;;5022651;28;20221;-73
2023/12/15 07:24:55;;;;;;;52.37;27.07;;;7.00;99.90;;;;;;5041652;28;20213;-74
2023/12/15 07:27:23;;;;;;;62.20;28.00;;;7.10;99.90;;;;;;5028285;28;20198;-73
2023/12/15 07:29:52;;;;;;;56.83;26.83;;;7.10;99.90;;;;;;5025030;28;20282;-74
2023/12/15 07:32:19;;;;;;;56.50;28.73;;;7.10;99.90;;;;;;5037990;28;20224;-75
2023/12/15 07:34:48;;;;;;;61.20;27.97;;;7.10;99.90;;;;;;5033201;28;20206;-76
2023/12/15 07:37:16;;;;;;;56.00;28.87;;;7.10;99.90;;;;;;5021437;28;20214;-76
2023/12/15 07:39:43;;;;;;;57.60;27.93;;;7.10;99.90;;;;;;5034754;28;20211;-76
2023/12/15 07:42:12;;;;;;;60.63;27.47;;;7.10;99.90;;;;;;5047429;28;20233;-75
2023/12/15 07:44:39;;;;;;;63.13;31.23;;;7.10;99.90;;;;;;5043977;28;20217;-75
2023/12/15 07:47:07;;;;;;;56.30;27.37;;;7.10;99.90;;;;;;5034567;28;20213;-76
2023/12/15 07:49:34;;;;;;;65.77;28.47;;;7.10;99.90;;;;;;5035268;28;20209;-76
2023/12/15 07:52:04;;;;;;;62.53;28.80;;;7.10;99.90;;;;;;5025068;28;20210;-75
2023/12/15 07:54:31;;;;;;;60.83;27.30;;;7.10;99.90;;;;;;5019829;28;20198;-76
2023/12/15 07:56:59;;;;;;;60.63;30.00;;;7.10;99.90;;;;;;5032494;28;20206;-75
2023/12/15 07:59:26;;;;;;;57.90;27.37;;;7.20;99.90;;;;;;5026370;28;20222;-76
2023/12/15 08:01:55;;;;;;;70.83;31.20;;;7.20;99.90;;;;;;5023179;28;20226;-75
2023/12/15 08:04:22;;;;;;;68.73;30.97;;;7.10;99.90;;;;;;5017334;28;20209;-75
2023/12/15 08:06:49;;;;;;;65.23;28.27;;;7.20;99.90;;;;;;5022852;28;20203;-76
2023/12/15 08:09:18;;;;;;;66.43;28.97;;;7.20;99.90;;;;;;5044646;28;20199;-76
2023/12/15 08:11:45;;;;;;;59.37;27.67;;;7.30;99.90;;;;;;5028627;28;20706;-76
2023/12/15 08:14:13;;;;;;;63.97;30.37;;;7.40;99.90;;;;;;5025753;28;20668;-75
2023/12/15 08:16:40;;;;;;;70.23;29.20;;;7.30;99.90;;;;;;5027593;28;20199;-76
2023/12/15 08:19:08;;;;;;;57.43;28.00;;;7.30;99.90;;;;;;5032906;28;20195;-76
2023/12/15 08:21:35;;;;;;;62.97;28.93;;;7.30;99.90;;;;;;5034791;28;20222;-76
2023/12/15 08:24:03;;;;;;;59.53;28.07;;;7.40;99.90;;;;;;5029031;28;20196;-76
2023/12/15 08:26:33;;;;;;;62.40;27.90;;;7.40;99.90;;;;;;5018759;28;20198;-76
2023/12/15 08:29:00;;;;;;;65.97;27.93;;;7.40;99.90;;;;;;5031689;28;20197;-76
2023/12/15 08:31:28;;;;;;;57.20;27.23;;;7.40;99.90;;;;;;5048760;28;20211;-76
2023/12/15 08:33:55;;;;;;;61.33;28.23;;;7.50;99.90;;;;;;5028426;28;20199;-75
2023/12/15 08:36:23;;;;;;;60.90;29.53;;;7.40;99.90;;;;;;5027570;28;20195;-75
2023/12/15 08:38:50;;;;;;;58.77;26.93;;;7.40;99.90;;;;;;5032784;28;20203;-75
2023/12/15 08:41:18;;;;;;;58.57;28.33;;;7.40;99.90;;;;;;5013302;28;20220;-75
2023/12/15 08:43:46;;;;;;;58.27;27.27;;;7.40;99.90;;;;;;5033408;28;20202;-76
2023/12/15 08:46:14;;;;;;;61.53;29.30;;;7.50;99.90;;;;;;5049629;28;20202;-76
2023/12/15 08:48:41;;;;;;;59.50;28.90;;;7.40;99.90;;;;;;5049179;28;20198;-75
2023/12/15 08:51:09;;;;;;;73.97;31.23;;;7.50;99.90;;;;;;5033806;28;20225;-74
2023/12/15 08:53:36;;;;;;;67.20;32.03;;;7.50;99.90;;;;;;5031030;28;20210;-76
2023/12/15 08:56:04;;;;;;;64.07;29.53;;;7.50;99.90;;;;;;5037288;28;20214;-76
2023/12/15 08:58:31;;;;;;;57.10;28.37;;;7.60;99.90;;;;;;5012514;28;20207;-75
2023/12/15 09:01:00;;;;;;;66.47;29.67;;;7.50;99.90;;;;;;5019581;28;20226;-74
2023/12/15 09:03:27;;;;;;;71.90;29.80;;;7.50;99.90;;;;;;5035750;28;20215;-75
2023/12/15 09:05:55;;;;;;;70.90;29.90;;;7.50;99.90;;;;;;5033051;28;20209;-74
2023/12/15 09:08:22;;;;;;;63.73;29.47;;;7.50;99.90;;;;;;5025066;28;20202;-75
2023/12/15 09:10:50;;;;;;;71.73;30.70;;;7.60;99.90;;;;;;5028045;28;20205;-75
2023/12/15 09:13:18;;;;;;;71.27;31.53;;;7.60;99.90;;;;;;5034578;28;20568;-75
2023/12/15 09:15:46;;;;;;;71.97;30.57;;;7.60;99.90;;;;;;5026098;28;20206;-75
2023/12/15 09:18:15;;;;;;;66.93;29.57;;;7.60;99.90;;;;;;5029767;28;20203;-75
2023/12/15 09:20:43;;;;;;;68.67;31.47;;;7.70;99.90;;;;;;5026129;28;20203;-75
2023/12/15 09:23:10;;;;;;;77.13;31.57;;;7.70;99.90;;;;;;5030764;28;20207;-75
2023/12/15 09:25:38;;;;;;;61.87;29.50;;;7.70;99.90;;;;;;5023198;28;20209;-75
2023/12/15 09:28:05;;;;;;;64.33;29.17;;;7.70;99.90;;;;;;5025959;28;20207;-74
2023/12/15 09:30:33;;;;;;;64.87;29.20;;;7.80;99.90;;;;;;5028313;28;20206;-75
2023/12/15 09:33:00;;;;;;;69.10;28.27;;;7.80;99.90;;;;;;5015432;28;20218;-75
2023/12/15 09:35:29;;;;;;;62.77;28.70;;;7.80;99.90;;;;;;5026861;28;20215;-75
2023/12/15 09:37:56;;;;;;;61.43;27.53;;;7.90;99.90;;;;;;5027223;28;20198;-75
2023/12/15 09:40:24;;;;;;;68.43;30.57;;;7.90;99.90;;;;;;5026834;28;20672;-75
2023/12/15 09:42:52;;;;;;;63.67;29.03;;;7.90;99.90;;;;;;5031376;28;20214;-75
2023/12/15 09:45:19;;;;;;;60.57;29.83;;;7.90;99.90;;;;;;5031676;28;20700;-75
2023/12/15 09:47:48;;;;;;;57.83;29.10;;;7.90;99.90;;;;;;5030150;28;20249;-75
2023/12/15 09:50:17;;;;;;;62.77;29.50;;;7.90;99.90;;;;;;5022603;28;20205;-75
2023/12/15 09:52:47;;;;;;;63.70;28.93;;;7.90;99.90;;;;;;5021235;28;20590;-76
2023/12/15 09:55:14;;;;;;;65.47;29.40;;;7.90;99.90;;;;;;5039431;28;20199;-76
2023/12/15 09:57:43;;;;;;;73.23;28.97;;;8.00;99.90;;;;;;5027197;28;20211;-76
2023/12/15 10:00:12;;;;;;;65.47;29.80;;;8.00;99.90;;;;;;5022481;28;20322;-76
2023/12/15 10:02:42;;;;;;;62.50;29.00;;;8.00;99.90;;;;;;5021918;28;20226;-76
2023/12/15 10:05:10;;;;;;;66.60;29.90;;;8.00;99.90;;;;;;5022394;28;20191;-75
2023/12/15 10:07:38;;;;;;;64.63;29.17;;;8.00;99.90;;;;;;5025604;28;20202;-75
2023/12/15 10:10:07;;;;;;;67.53;31.00;;;8.00;99.90;;;;;;5028082;28;20202;-76
2023/12/15 10:12:35;;;;;;;76.33;31.30;;;8.00;99.90;;;;;;5022149;28;20222;-75
2023/12/15 10:15:02;;;;;;;68.33;30.33;;;8.00;99.90;;;;;;5023994;28;20200;-76
2023/12/15 10:17:29;;;;;;;70.80;31.90;;;8.10;99.90;;;;;;5020804;28;20680;-76
2023/12/15 10:20:06;;;;;;;69.73;32.13;;;8.10;99.90;;;;;;5024793;28;20199;-76
2023/12/15 10:22:34;;;;;;;76.10;31.43;;;8.20;99.90;;;;;;5020405;28;20396;-76
2023/12/15 10:25:01;;;;;;;76.13;30.13;;;8.20;99.90;;;;;;5024580;28;20206;-75
2023/12/15 10:27:30;;;;;;;77.80;32.07;;;8.20;99.90;;;;;;5024811;28;20199;-76
2023/12/15 10:29:57;;;;;;;62.63;29.30;;;8.20;99.90;;;;;;5028214;28;20199;-76
2023/12/15 10:32:26;;;;;;;68.13;32.73;;;8.20;99.90;;;;;;5022278;28;20219;-76
2023/12/15 10:34:53;;;;;;;69.17;32.00;;;8.30;99.90;;;;;;5019822;28;20653;-76
2023/12/15 10:37:21;;;;;;;68.20;32.67;;;8.30;99.90;;;;;;5018734;28;20206;-76
2023/12/15 10:39:49;;;;;;;72.40;30.53;;;8.20;99.90;;;;;;5026912;28;20191;-75
2023/12/15 10:42:17;;;;;;;66.87;30.57;;;8.30;99.90;;;;;;5023739;28;20223;-76
2023/12/15 10:44:47;;;;;;;66.13;30.23;;;8.30;99.90;;;;;;5028170;28;20563;-75
2023/12/15 10:47:15;;;;;;;63.20;29.00;;;8.30;99.90;;;;;;5029483;28;20700;-76
2023/12/15 10:49:43;;;;;;;65.40;30.30;;;8.30;99.90;;;;;;5025910;28;20195;-76
2023/12/15 10:52:11;;;;;;;66.03;32.17;;;8.30;99.90;;;;;;5021381;28;20222;-75
2023/12/15 10:54:42;;;;;;;73.80;31.87;;;8.30;99.90;;;;;;5029626;28;20211;-75
2023/12/15 10:57:10;;;;;;;69.80;32.40;;;8.30;99.90;;;;;;5028214;28;20201;-76
2023/12/15 10:59:39;;;;;;;73.37;32.30;;;8.30;99.90;;;;;;5028203;28;20206;-75
2023/12/15 11:02:10;;;;;;;67.47;31.23;;;8.40;99.90;;;;;;5033998;28;20223;-75
2023/12/15 11:04:38;;;;;;;71.97;32.33;;;8.30;99.90;;;;;;5026119;28;20214;-75
2023/12/15 11:07:06;;;;;;;67.17;31.87;;;8.30;99.90;;;;;;5024634;28;20224;-75
2023/12/15 11:09:35;;;;;;;61.37;29.17;;;8.30;99.90;;;;;;5031817;28;20194;-76
2023/12/15 11:12:29;;;;;;;67.90;31.80;;;8.30;99.90;;;;;;5034141;28;20253;-76
2023/12/15 11:15:02;;;;;;;64.77;31.30;;;8.30;99.90;;;;;;5033049;28;20203;-76
2023/12/15 11:17:32;;;;;;;73.20;32.10;;;8.40;99.90;;;;;;5038898;28;20199;-75
2023/12/15 11:20:06;;;;;;;64.90;29.20;;;8.30;99.90;;;;;;5024879;28;20204;-75
2023/12/15 11:22:42;;;;;;;65.90;31.53;;;8.40;99.90;;;;;;5035201;28;20218;-76
2023/12/15 11:25:18;;;;;;;62.07;29.93;;;8.40;99.90;;;;;;5024762;28;20207;-76
2023/12/15 11:28:02;;;;;;;67.03;30.07;;;8.40;99.90;;;;;;5026882;28;20209;-76
2023/12/15 11:30:31;;;;;;;62.33;30.33;;;8.40;99.90;;;;;;5033075;28;20577;-75
2023/12/15 11:33:00;;;;;;;62.07;29.77;;;8.40;99.90;;;;;;5025905;28;20251;-76
2023/12/15 11:35:29;;;;;;;59.17;29.17;;;8.50;99.90;;;;;;5032452;28;20195;-75
2023/12/15 11:37:58;;;;;;;58.50;29.10;;;8.60;99.90;;;;;;5032070;28;20195;-76
2023/12/15 11:40:29;;;;;;;58.17;27.80;;;8.50;99.90;;;;;;5029224;28;20222;-75
2023/12/15 11:42:57;;;;;;;67.53;30.60;;;8.50;99.90;;;;;;5033109;28;20219;-76
2023/12/15 11:45:26;;;;;;;62.90;28.67;;;8.50;99.90;;;;;;5026766;28;20248;-75
2023/12/15 11:47:54;;;;;;;59.27;29.80;;;8.60;99.90;;;;;;5029116;28;20202;-76
2023/12/15 11:50:23;;;;;;;59.63;30.87;;;8.60;99.90;;;;;;5027803;28;20203;-76
2023/12/15 11:52:51;;;;;;;63.40;31.20;;;8.50;99.90;;;;;;5026121;28;20226;-75
2023/12/15 11:55:19;;;;;;;59.07;29.80;;;8.60;99.90;;;;;;5022407;28;20209;-76
2023/12/15 11:57:47;;;;;;;58.13;31.33;;;8.70;99.90;;;;;;5031196;28;20211;-77
2023/12/15 12:00:17;;;;;;;56.83;28.80;;;8.60;99.90;;;;;;5035747;28;20183;-76
2023/12/15 12:02:46;;;;;;;56.50;27.87;;;8.60;99.90;;;;;;5033733;28;20223;-76
2023/12/15 12:05:14;;;;;;;59.37;27.97;;;8.60;99.90;;;;;;5034446;28;20203;-76
2023/12/15 12:07:43;;;;;;;61.73;29.37;;;8.60;99.90;;;;;;5029156;28;20200;-76
2023/12/15 12:10:11;;;;;;;60.93;31.17;;;8.70;99.90;;;;;;5026087;28;20210;-75
2023/12/15 12:12:39;;;;;;;64.93;30.20;;;8.60;99.90;;;;;;5032391;28;20219;-75
2023/12/15 12:15:09;;;;;;;56.83;30.73;;;8.70;99.90;;;;;;5025198;28;20210;-75
2023/12/15 12:17:38;;;;;;;59.50;30.10;;;8.60;99.90;;;;;;5026004;28;20210;-75
2023/12/15 12:20:10;;;;;;;64.80;30.47;;;8.60;99.90;;;;;;5024564;28;20225;-76
2023/12/15 12:22:55;;;;;;;61.23;29.37;;;8.60;99.90;;;;;;5028804;28;20223;-76
2023/12/15 12:25:25;;;;;;;60.33;28.40;;;8.70;99.90;;;;;;5022490;28;20198;-77
2023/12/15 12:27:53;;;;;;;63.40;30.57;;;8.70;99.90;;;;;;5029007;28;20442;-76
2023/12/15 12:30:21;;;;;;;58.73;28.27;;;8.60;99.90;;;;;;5027274;28;20200;-76
2023/12/15 12:32:48;;;;;;;60.20;29.93;;;8.70;99.90;;;;;;5024313;28;20227;-76
2023/12/15 12:35:16;;;;;;;54.03;28.40;;;8.70;99.90;;;;;;5020865;28;20195;-76
2023/12/15 12:37:43;;;;;;;60.17;29.63;;;8.70;99.90;;;;;;5027723;28;20211;-76
2023/12/15 12:40:13;;;;;;;64.40;29.50;;;8.70;99.90;;;;;;5022733;28;20196;-77